Time;durP1;ratioP1;P1;durP2;ratioP2;P2;SDS_P1;SDS_P2;PMS_P1;PMS_P2;Temp;Humidity;BMP_temperature;BMP_pressure;BME280_temperature;BME280_humidity;BME280_pressure;Samples;Min_cycle;Max_cycle;Signal;HPM_P1;HPM_P2
2022/06/05 00:02:26;;;;;;;12.68;5.63;;;26.30;79.00;;;;;;6244642;22;20009;-87
2022/06/05 00:05:08;;;;;;;7.75;5.78;;;26.30;79.20;;;;;;6244710;23;20001;-86
2022/06/05 00:07:39;;;;;;;8.35;5.45;;;26.30;79.60;;;;;;6222567;23;20054;-96
2022/06/05 00:10:20;;;;;;;6.25;4.97;;;26.30;79.00;;;;;;6250893;23;20004;-86
2022/06/05 00:12:54;;;;;;;7.43;5.57;;;26.30;79.10;;;;;;6246816;23;20287;-84
2022/06/05 00:15:20;;;;;;;6.10;4.70;;;26.20;79.00;;;;;;6247163;23;20016;-84
2022/06/05 00:17:46;;;;;;;8.07;5.13;;;26.20;79.00;;;;;;6247302;23;20143;-84
2022/06/05 00:20:12;;;;;;;5.68;4.70;;;26.20;78.90;;;;;;6245874;23;20004;-84
2022/06/05 00:22:39;;;;;;;7.20;4.75;;;26.20;78.90;;;;;;6247095;23;20071;-84
2022/06/05 00:25:08;;;;;;;9.57;5.25;;;26.20;79.00;;;;;;6246313;23;20049;-84
2022/06/05 00:27:48;;;;;;;8.15;5.50;;;26.20;79.20;;;;;;6246594;23;20322;-84
2022/06/05 00:30:26;;;;;;;6.75;4.72;;;26.20;79.40;;;;;;6246047;23;19996;-84
2022/06/05 00:33:08;;;;;;;6.18;4.68;;;26.10;79.40;;;;;;6246926;23;20403;-87
2022/06/05 00:35:50;;;;;;;5.22;4.72;;;26.10;79.60;;;;;;6220432;23;20008;-88
2022/06/05 00:38:31;;;;;;;5.72;4.50;;;26.10;79.70;;;;;;6247016;23;20083;-88
2022/06/05 00:41:12;;;;;;;5.97;4.30;;;26.10;79.70;;;;;;6246922;23;20119;-87
2022/06/05 00:43:38;;;;;;;6.90;4.55;;;26.10;79.80;;;;;;6246257;23;20004;-86
2022/06/05 00:46:03;;;;;;;7.72;4.70;;;26.10;79.80;;;;;;6247142;23;20010;-87
2022/06/05 00:48:30;;;;;;;6.53;4.63;;;26.10;79.60;;;;;;6246765;23;20000;-87
2022/06/05 00:50:55;;;;;;;6.85;4.80;;;26.10;79.50;;;;;;6246109;23;20004;-87
2022/06/05 00:53:21;;;;;;;7.03;4.43;;;26.00;79.50;;;;;;6246666;23;20011;-84
2022/06/05 00:55:50;;;;;;;8.60;4.93;;;26.00;79.50;;;;;;6246096;23;19996;-83
2022/06/05 00:58:18;;;;;;;7.73;3.80;;;26.00;79.60;;;;;;6247026;23;20071;-83
2022/06/05 01:00:49;;;;;;;6.53;4.30;;;26.00;79.70;;;;;;6245397;23;20004;-84
2022/06/05 01:03:15;;;;;;;5.53;4.35;;;26.00;79.90;;;;;;6246309;22;20034;-84
2022/06/05 01:05:41;;;;;;;8.00;4.38;;;26.00;80.10;;;;;;6219492;23;20027;-84
2022/06/05 01:08:09;;;;;;;7.55;4.45;;;26.00;80.50;;;;;;6247125;23;20273;-84
2022/06/05 01:11:02;;;;;;;5.95;4.65;;;25.90;80.70;;;;;;6246461;23;19996;-84
2022/06/05 01:13:39;;;;;;;6.47;4.20;;;25.90;81.90;;;;;;6246986;23;20008;-84
2022/06/05 01:16:23;;;;;;;5.25;4.32;;;25.90;81.60;;;;;;6219194;23;20000;-84
2022/06/05 01:19:11;;;;;;;8.80;4.65;;;25.80;81.70;;;;;;6246074;23;20031;-84
2022/06/05 01:22:02;;;;;;;5.78;4.55;;;25.80;81.90;;;;;;6246977;23;20024;-87
2022/06/05 01:24:55;;;;;;;7.22;5.13;;;25.80;82.20;;;;;;6219865;23;20008;-85
2022/06/05 01:27:27;;;;;;;4.90;4.38;;;25.80;81.70;;;;;;6246639;23;20007;-86
2022/06/05 01:30:07;;;;;;;6.55;4.60;;;25.80;82.50;;;;;;6245743;23;20011;-86
2022/06/05 01:32:55;;;;;;;5.95;4.18;;;25.70;82.10;;;;;;6246976;23;20008;-83
2022/06/05 01:35:39;;;;;;;7.18;4.40;;;25.70;82.00;;;;;;6245917;23;20039;-86
2022/06/05 01:38:32;;;;;;;6.80;4.43;;;25.80;81.90;;;;;;6246562;23;20000;-86
2022/06/05 01:41:05;;;;;;;7.15;4.60;;;25.80;82.10;;;;;;6245274;23;20331;-84
2022/06/05 01:43:34;;;;;;;6.03;4.38;;;25.80;82.00;;;;;;6246503;23;20050;-84
2022/06/05 01:46:33;;;;;;;6.40;4.80;;;25.80;82.00;;;;;;6219101;23;20407;-84
2022/06/05 01:49:20;;;;;;;8.85;4.88;;;25.70;82.20;;;;;;6244283;23;20305;-85
2022/06/05 01:51:50;;;;;;;6.22;4.68;;;25.70;82.40;;;;;;6246061;23;20007;-85
2022/06/05 01:54:22;;;;;;;6.57;4.63;;;25.70;82.50;;;;;;6245948;23;20398;-85
2022/06/05 01:56:58;;;;;;;5.93;4.45;;;25.70;82.90;;;;;;6219015;23;20464;-84
2022/06/05 01:59:42;;;;;;;6.18;4.10;;;25.70;83.00;;;;;;6218801;23;20001;-86
2022/06/05 02:02:12;;;;;;;7.25;4.80;;;25.70;83.20;;;;;;6217950;22;20008;-86
2022/06/05 02:04:40;;;;;;;;;;;25.70;83.40;;;;;;6246831;23;20375;-86
2022/06/05 02:07:27;;;;;;;5.78;4.78;;;25.70;83.70;;;;;;6218293;23;20272;-86
2022/06/05 02:10:05;;;;;;;6.32;4.95;;;25.70;83.60;;;;;;6246347;23;20011;-89
2022/06/05 02:12:32;;;;;;;6.55;4.50;;;25.60;83.30;;;;;;6246210;23;20000;-90
2022/06/05 02:14:59;;;;;;;5.82;4.28;;;25.60;83.30;;;;;;6220049;23;20008;-89
2022/06/05 02:17:25;;;;;;;7.38;4.20;;;25.60;83.50;;;;;;6219513;23;20011;-90
2022/06/05 02:19:51;;;;;;;9.40;4.60;;;25.60;83.40;;;;;;6219768;23;20004;-90
2022/06/05 02:22:39;;;;;;;7.22;4.72;;;25.60;83.50;;;;;;6219572;23;20007;-90
2022/06/05 02:25:07;;;;;;;8.35;4.60;;;25.60;83.70;;;;;;6219015;23;20091;-87
2022/06/05 02:27:33;;;;;;;4.90;3.90;;;25.60;83.60;;;;;;6245841;23;20031;-87
2022/06/05 02:29:59;;;;;;;5.88;4.07;;;25.60;83.50;;;;;;6218071;23;20005;-88
2022/06/05 02:33:02;;;;;;;7.95;4.10;;;25.50;83.70;;;;;;6218239;23;20004;-87
2022/06/05 02:35:41;;;;;;;5.75;4.60;;;25.50;83.90;;;;;;6245890;23;20011;-84
2022/06/05 02:38:22;;;;;;;6.18;4.85;;;25.50;84.10;;;;;;6245352;23;20000;-84
2022/06/05 02:41:14;;;;;;;5.40;3.95;;;25.50;84.10;;;;;;6218575;23;20020;-84
2022/06/05 02:44:32;;;;;;;7.43;5.47;;;25.50;84.70;;;;;;6218142;23;20000;-85
2022/06/05 02:47:38;;;;;;;7.00;4.57;;;25.50;84.80;;;;;;6220877;23;20099;-86
2022/06/05 02:50:12;;;;;;;7.88;4.38;;;25.50;84.70;;;;;;6245375;23;20000;-85
2022/06/05 02:52:39;;;;;;;5.18;4.03;;;25.50;84.70;;;;;;6245258;23;20453;-86
2022/06/05 02:55:10;;;;;;;9.02;4.15;;;25.50;84.70;;;;;;6245944;23;20035;-87
2022/06/05 02:57:37;;;;;;;7.88;4.53;;;25.50;84.70;;;;;;6245609;23;20004;-86
2022/06/05 03:00:17;;;;;;;6.60;4.65;;;25.60;84.80;;;;;;6244343;23;20015;-85
2022/06/05 03:05:27;;;;;;;6.00;4.25;;;25.50;85.00;;;;;;6245004;23;20015;-84
2022/06/05 03:07:52;;;;;;;5.50;4.47;;;25.60;85.20;;;;;;6245468;23;20007;-84
2022/06/05 03:10:18;;;;;;;6.10;4.45;;;25.60;85.50;;;;;;6244635;23;20003;-83
2022/06/05 03:12:45;;;;;;;7.63;4.22;;;25.60;85.60;;;;;;6245434;23;20010;-83
2022/06/05 03:15:12;;;;;;;7.10;4.30;;;25.60;85.70;;;;;;6218298;23;20004;-83
2022/06/05 03:17:38;;;;;;;7.88;4.88;;;25.50;85.80;;;;;;6244721;23;20012;-83
2022/06/05 03:20:04;;;;;;;7.18;4.40;;;25.50;86.90;;;;;;6244309;23;20003;-84
2022/06/05 03:22:30;;;;;;;7.43;4.30;;;25.40;86.80;;;;;;6244534;23;20561;-79
2022/06/05 03:24:56;;;;;;;7.80;4.45;;;25.40;87.00;;;;;;6245172;23;20044;-83
2022/06/05 03:27:22;;;;;;;7.90;4.43;;;25.40;87.20;;;;;;6245312;23;20093;-84
2022/06/05 03:29:48;;;;;;;5.20;3.45;;;25.40;87.20;;;;;;6244106;23;20330;-85
2022/06/05 03:32:13;;;;;;;8.80;4.65;;;25.40;87.30;;;;;;6244349;23;20595;-85
2022/06/05 03:34:40;;;;;;;5.82;4.20;;;25.40;87.30;;;;;;6244754;23;20004;-85
2022/06/05 03:37:06;;;;;;;6.07;4.90;;;25.40;87.40;;;;;;6245224;23;20007;-86
2022/06/05 03:39:32;;;;;;;5.07;4.00;;;25.40;87.50;;;;;;6244990;23;20000;-87
2022/06/05 03:41:59;;;;;;;5.28;4.13;;;25.40;87.50;;;;;;6244616;23;20046;-86
2022/06/05 03:44:25;;;;;;;7.13;4.30;;;25.40;87.60;;;;;;6244775;23;20004;-85
2022/06/05 03:46:51;;;;;;;7.22;4.25;;;25.40;87.70;;;;;;6244894;23;20445;-84
2022/06/05 03:49:17;;;;;;;5.00;3.83;;;25.40;87.70;;;;;;6245049;23;20083;-85
2022/06/05 03:51:45;;;;;;;6.25;3.72;;;25.40;87.90;;;;;;6217681;23;20439;-84
2022/06/05 03:54:10;;;;;;;4.68;3.92;;;25.40;87.90;;;;;;6245055;23;20423;-86
2022/06/05 03:56:37;;;;;;;5.43;4.10;;;25.50;88.00;;;;;;6244646;23;20003;-83
2022/06/05 03:59:03;;;;;;;7.13;4.22;;;25.40;88.10;;;;;;6244750;23;20066;-83
2022/06/05 04:01:29;;;;;;;6.63;3.97;;;25.40;88.20;;;;;;6217085;23;20008;-83
2022/06/05 04:03:56;;;;;;;6.88;5.72;;;25.40;88.10;;;;;;6244864;22;20047;-83
2022/06/05 04:06:29;;;;;;;11.85;7.78;;;25.40;88.40;;;;;;6243732;23;20007;-83
2022/06/05 04:08:57;;;;;;;8.95;5.43;;;25.40;88.60;;;;;;6244283;23;20058;-83
2022/06/05 04:11:23;;;;;;;6.93;4.43;;;25.30;88.60;;;;;;6244151;23;20023;-83
2022/06/05 04:13:49;;;;;;;7.50;4.57;;;25.30;88.40;;;;;;6244956;23;20326;-83
2022/06/05 04:16:19;;;;;;;6.05;4.38;;;25.30;88.50;;;;;;6245206;23;20000;-83
2022/06/05 04:18:45;;;;;;;7.80;5.05;;;25.30;88.50;;;;;;6244292;23;20004;-83
2022/06/05 04:21:14;;;;;;;6.18;4.57;;;25.30;88.50;;;;;;6217577;23;20004;-84
2022/06/05 04:23:40;;;;;;;7.57;4.97;;;25.40;88.50;;;;;;6218037;23;20035;-83
2022/06/05 04:26:12;;;;;;;5.78;5.07;;;25.40;88.50;;;;;;6218188;23;20507;-83
2022/06/05 04:28:38;;;;;;;8.18;5.15;;;25.30;88.30;;;;;;6244030;23;20053;-85
2022/06/05 04:31:04;;;;;;;7.13;5.00;;;25.30;88.10;;;;;;6216961;23;20029;-83
2022/06/05 04:33:32;;;;;;;9.85;6.72;;;25.30;88.10;;;;;;6244596;23;20011;-83
2022/06/05 04:35:58;;;;;;;14.68;12.27;;;25.30;87.10;;;;;;6218569;23;20091;-83
2022/06/05 04:38:24;;;;;;;13.95;9.50;;;25.00;86.40;;;;;;6244792;23;19997;-83
2022/06/05 04:40:49;;;;;;;8.43;6.88;;;24.70;87.00;;;;;;6244991;23;20043;-84
2022/06/05 04:43:15;;;;;;;20.52;16.75;;;24.70;87.40;;;;;;6244153;23;20000;-84
2022/06/05 04:45:42;;;;;;;12.13;9.52;;;24.50;87.20;;;;;;6244748;23;20062;-84
2022/06/05 04:48:10;;;;;;;12.90;10.77;;;24.40;87.80;;;;;;6244460;23;19996;-84
2022/06/05 04:50:36;;;;;;;8.98;8.05;;;24.40;87.90;;;;;;6243852;23;20000;-85
2022/06/05 04:53:02;;;;;;;10.32;8.48;;;24.40;88.00;;;;;;6246046;23;20007;-83
2022/06/05 04:55:28;;;;;;;10.18;7.63;;;24.50;88.00;;;;;;6246840;23;20055;-84
2022/06/05 04:57:54;;;;;;;13.23;11.02;;;24.50;87.70;;;;;;6246500;23;20031;-84
2022/06/05 05:00:19;;;;;;;21.25;14.65;;;24.50;87.70;;;;;;6245862;23;20005;-84
2022/06/05 05:02:45;;;;;;;13.93;10.27;;;24.30;88.10;;;;;;6246123;22;20012;-84
2022/06/05 05:05:11;;;;;;;10.05;8.40;;;24.20;88.60;;;;;;6246689;23;20036;-88
2022/06/05 05:07:37;;;;;;;14.60;7.85;;;24.30;88.40;;;;;;6219873;23;20012;-95
2022/06/05 05:10:03;;;;;;;10.13;8.02;;;24.40;88.20;;;;;;6247325;23;20083;-90
2022/06/05 05:12:28;;;;;;;11.43;8.55;;;24.50;87.90;;;;;;6246905;23;20087;-89
2022/06/05 05:14:54;;;;;;;15.25;10.13;;;24.60;87.50;;;;;;6247367;23;20034;-90
2022/06/05 05:17:20;;;;;;;9.23;8.25;;;24.70;87.60;;;;;;6246764;23;20004;-90
2022/06/05 05:19:46;;;;;;;11.80;8.48;;;24.70;87.40;;;;;;6246285;23;20003;-81
2022/06/05 05:22:12;;;;;;;10.55;8.07;;;24.70;87.20;;;;;;6219945;23;20369;-83
2022/06/05 05:24:37;;;;;;;12.85;10.07;;;24.60;87.40;;;;;;6243830;23;20083;-83
2022/06/05 05:27:03;;;;;;;12.80;8.70;;;24.60;87.40;;;;;;6246646;23;20000;-84
2022/06/05 05:29:29;;;;;;;8.20;7.40;;;24.60;87.70;;;;;;6245146;23;20000;-84
2022/06/05 05:31:54;;;;;;;11.52;8.20;;;24.60;87.70;;;;;;6246686;23;20367;-84
2022/06/05 05:34:20;;;;;;;11.25;9.70;;;24.70;87.70;;;;;;6245768;23;20015;-84
2022/06/05 05:36:46;;;;;;;17.40;11.57;;;24.70;87.90;;;;;;6246518;23;20027;-84
2022/06/05 05:42:06;;;;;;;12.65;10.13;;;24.70;87.90;;;;;;6245768;23;20047;-84
2022/06/05 05:44:41;;;;;;;9.48;8.48;;;24.70;88.00;;;;;;6246631;23;20342;-84
2022/06/05 05:47:10;;;;;;;18.58;15.52;;;24.70;87.90;;;;;;6246341;23;20000;-83
2022/06/05 05:49:36;;;;;;;21.23;14.87;;;24.70;88.10;;;;;;6245833;23;20004;-84
2022/06/05 05:52:03;;;;;;;11.80;8.55;;;24.60;88.50;;;;;;6219186;23;20039;-84
2022/06/05 05:54:29;;;;;;;12.68;9.75;;;24.60;88.70;;;;;;6245202;23;20004;-84
2022/06/05 05:56:54;;;;;;;16.27;14.10;;;24.60;89.30;;;;;;6243303;23;20485;-84
2022/06/05 05:59:20;;;;;;;13.30;9.85;;;24.60;89.50;;;;;;6218542;23;20000;-88
2022/06/05 06:01:47;;;;;;;7.57;6.78;;;24.70;89.50;;;;;;6218893;22;20071;-89
2022/06/05 06:04:13;;;;;;;9.95;7.57;;;24.80;89.10;;;;;;6244480;23;20083;-84
2022/06/05 06:06:42;;;;;;;20.50;12.45;;;24.80;89.00;;;;;;6245118;23;20005;-84
2022/06/05 06:09:07;;;;;;;13.90;10.65;;;24.90;88.80;;;;;;6245547;23;20430;-84
2022/06/05 06:11:33;;;;;;;19.92;14.02;;;25.00;88.50;;;;;;6245483;23;20004;-82
2022/06/05 06:13:59;;;;;;;17.02;11.38;;;24.90;88.50;;;;;;6244645;23;20054;-83
2022/06/05 06:16:27;;;;;;;13.68;10.48;;;24.90;89.10;;;;;;6245118;23;20008;-82
2022/06/05 06:18:54;;;;;;;12.25;7.32;;;24.80;89.40;;;;;;6245630;23;20034;-84
2022/06/05 06:21:20;;;;;;;12.02;7.82;;;24.90;88.90;;;;;;6245943;23;20031;-83
2022/06/05 06:23:46;;;;;;;14.35;7.25;;;25.10;88.50;;;;;;6245824;23;20008;-91
2022/06/05 06:26:12;;;;;;;13.80;9.00;;;25.20;88.40;;;;;;6244657;23;20093;-81
2022/06/05 06:28:38;;;;;;;8.32;6.57;;;25.30;88.50;;;;;;6244728;23;20130;-82
2022/06/05 06:31:19;;;;;;;10.77;8.30;;;25.40;88.00;;;;;;6245663;23;20055;-82
2022/06/05 06:33:48;;;;;;;8.15;6.53;;;25.40;87.80;;;;;;6221148;23;20063;-82
2022/06/05 06:36:14;;;;;;;10.55;6.85;;;25.40;87.50;;;;;;6214342;23;20397;-82
2022/06/05 06:38:40;;;;;;;10.27;6.32;;;25.50;87.30;;;;;;6244178;23;20008;-83
2022/06/05 06:41:09;;;;;;;8.18;6.05;;;25.60;86.90;;;;;;6244563;23;20010;-84
2022/06/05 06:43:35;;;;;;;8.40;4.93;;;25.60;86.40;;;;;;6244937;23;20000;-81
2022/06/05 06:46:02;;;;;;;8.13;5.10;;;25.70;86.20;;;;;;6243955;23;20007;-81
2022/06/05 06:48:29;;;;;;;9.10;4.70;;;25.80;85.90;;;;;;6242325;23;20541;-79
2022/06/05 06:50:56;;;;;;;5.78;3.97;;;25.80;85.60;;;;;;6245241;23;20437;-76
2022/06/05 06:53:23;;;;;;;4.90;4.40;;;25.90;85.30;;;;;;6245190;23;20326;-76
2022/06/05 06:55:50;;;;;;;5.57;4.57;;;25.90;85.10;;;;;;6245671;23;20023;-75
2022/06/05 06:58:15;;;;;;;6.93;4.80;;;26.00;84.70;;;;;;6218817;23;20001;-75
2022/06/05 07:00:41;;;;;;;7.85;5.43;;;26.00;84.50;;;;;;6246015;23;20054;-78
2022/06/05 07:03:07;;;;;;;8.52;4.35;;;26.10;83.90;;;;;;6244878;22;20012;-78
2022/06/05 07:05:33;;;;;;;6.75;4.53;;;26.10;83.70;;;;;;6245426;23;20345;-78
2022/06/05 07:07:59;;;;;;;4.53;3.75;;;26.10;83.50;;;;;;6245260;23;20011;-80
2022/06/05 07:10:25;;;;;;;4.75;3.42;;;26.20;82.40;;;;;;6245619;23;20004;-78
2022/06/05 07:12:52;;;;;;;4.95;3.35;;;26.20;82.50;;;;;;6245340;23;20004;-77
2022/06/05 07:15:18;;;;;;;7.38;3.90;;;26.20;82.10;;;;;;6245484;23;20000;-78
2022/06/05 07:17:44;;;;;;;6.95;4.60;;;26.30;81.60;;;;;;6217290;23;20012;-78
2022/06/05 07:20:10;;;;;;;4.43;3.40;;;26.30;81.50;;;;;;6245187;23;20000;-77
2022/06/05 07:22:36;;;;;;;5.93;3.60;;;26.30;81.30;;;;;;6217863;23;20079;-75
2022/06/05 07:25:02;;;;;;;5.25;3.83;;;26.40;81.30;;;;;;6245563;23;20039;-76
2022/06/05 07:27:28;;;;;;;6.40;4.40;;;26.40;80.70;;;;;;6245553;23;20058;-76
2022/06/05 07:30:01;;;;;;;7.88;4.30;;;26.50;80.60;;;;;;6244998;23;20012;-77
2022/06/05 07:32:27;;;;;;;6.05;4.53;;;26.50;80.50;;;;;;6216803;23;20100;-76
2022/06/05 07:34:53;;;;;;;8.32;4.15;;;26.60;79.90;;;;;;6244200;23;20429;-76
2022/06/05 07:37:19;;;;;;;6.35;3.95;;;26.60;80.00;;;;;;6217780;23;20031;-78
2022/06/05 07:39:44;;;;;;;8.98;5.05;;;26.60;78.80;;;;;;6244477;23;19997;-78
2022/06/05 07:42:11;;;;;;;7.63;5.10;;;26.60;79.10;;;;;;6216226;23;20026;-76
2022/06/05 07:44:37;;;;;;;5.45;4.47;;;26.70;79.30;;;;;;6243234;23;20490;-78
2022/06/05 07:47:37;;;;;;;7.90;4.20;;;26.70;79.20;;;;;;6214877;23;20331;-78
2022/06/05 07:50:03;;;;;;;8.65;5.07;;;26.80;79.10;;;;;;6243967;23;20462;-76
2022/06/05 07:55:18;;;;;;;5.38;3.83;;;26.80;77.40;;;;;;6187436;23;20394;-76
2022/06/05 07:57:44;;;;;;;5.60;3.90;;;26.90;78.00;;;;;;6217079;23;20004;-76
2022/06/05 08:00:11;;;;;;;6.55;3.40;;;26.90;78.20;;;;;;6244463;23;20004;-76
2022/06/05 08:02:39;;;;;;;5.90;3.85;;;27.00;77.70;;;;;;6222047;23;20027;-76
2022/06/05 08:05:06;;;;;;;6.47;3.58;;;27.00;77.40;;;;;;6244050;22;19996;-76
2022/06/05 08:07:33;;;;;;;6.55;3.47;;;27.10;77.10;;;;;;6243703;22;20042;-78
2022/06/05 08:10:00;;;;;;;7.13;3.75;;;27.20;77.10;;;;;;6243881;22;20000;-78
2022/06/05 08:12:30;;;;;;;4.03;3.30;;;27.20;76.40;;;;;;6242646;23;20001;-78
2022/06/05 08:14:56;;;;;;;5.57;3.30;;;27.30;76.20;;;;;;6244246;22;20071;-78
2022/06/05 08:17:26;;;;;;;8.45;5.40;;;27.30;75.90;;;;;;6243977;22;20000;-78
2022/06/05 08:19:51;;;;;;;4.38;2.97;;;27.40;72.80;;;;;;6242691;23;20053;-78
2022/06/05 08:22:20;;;;;;;6.93;3.65;;;27.40;74.70;;;;;;6244824;22;20087;-78
2022/06/05 08:24:48;;;;;;;5.60;3.40;;;27.50;74.80;;;;;;6244769;22;20035;-78
2022/06/05 08:27:20;;;;;;;5.65;3.00;;;27.60;74.80;;;;;;6243545;23;20102;-78
2022/06/05 08:29:46;;;;;;;8.73;4.00;;;27.60;74.80;;;;;;6246174;22;20004;-77
2022/06/05 08:32:13;;;;;;;7.13;3.75;;;27.70;74.40;;;;;;6245820;22;20040;-77
2022/06/05 08:34:40;;;;;;;6.97;3.90;;;27.70;73.90;;;;;;6245984;22;20004;-77
2022/06/05 08:42:38;;;;;;;8.32;3.60;;;27.90;74.60;;;;;;6245923;23;20043;-78
2022/06/05 08:45:23;;;;;;;5.40;2.70;;;28.00;72.80;;;;;;6245809;23;20035;-78
2022/06/05 08:48:03;;;;;;;6.43;3.40;;;28.10;72.90;;;;;;6246295;23;20330;-78
2022/06/05 08:50:48;;;;;;;4.40;2.95;;;28.10;72.50;;;;;;6246069;22;20008;-77
2022/06/05 08:53:35;;;;;;;7.32;3.22;;;28.30;72.00;;;;;;6246359;22;20008;-77
2022/06/05 08:56:05;;;;;;;6.25;2.90;;;28.30;70.70;;;;;;6246200;22;20039;-77
2022/06/05 08:59:15;;;;;;;8.57;4.43;;;28.40;70.30;;;;;;6244396;23;20022;-77
2022/06/05 09:01:46;;;;;;;10.07;3.13;;;28.50;69.30;;;;;;6127289;23;20006;-78
2022/06/05 09:04:24;;;;;;;6.07;3.13;;;28.50;68.20;;;;;;6236008;22;20043;-78
2022/06/05 09:07:03;;;;;;;7.65;3.75;;;28.60;68.20;;;;;;6244533;22;20007;-78
2022/06/05 09:10:04;;;;;;;6.78;3.05;;;28.70;68.10;;;;;;6245618;22;20004;-77
2022/06/05 09:12:43;;;;;;;7.63;2.65;;;28.70;67.30;;;;;;6243045;23;20426;-78
2022/06/05 09:15:33;;;;;;;6.80;3.47;;;28.80;67.20;;;;;;6246253;22;20011;-78
2022/06/05 09:18:00;;;;;;;7.03;3.05;;;28.80;65.40;;;;;;6245685;22;20063;-78
2022/06/05 09:20:53;;;;;;;4.80;3.15;;;28.80;65.10;;;;;;6245511;22;20007;-78
2022/06/05 09:23:41;;;;;;;6.72;2.45;;;28.80;66.10;;;;;;6244490;23;20008;-78
2022/06/05 09:26:12;;;;;;;10.40;4.57;;;28.90;66.80;;;;;;6246720;22;20000;-78
2022/06/05 09:28:50;;;;;;;5.10;2.72;;;29.00;67.10;;;;;;6246259;22;20054;-78
2022/06/05 09:31:43;;;;;;;12.55;3.70;;;29.10;66.50;;;;;;6244682;22;20000;-79
2022/06/05 09:34:12;;;;;;;6.55;3.47;;;29.20;66.30;;;;;;6243931;23;20004;-80
2022/06/05 09:36:41;;;;;;;13.73;4.22;;;29.30;66.40;;;;;;6246147;22;20032;-80
2022/06/05 09:39:30;;;;;;;6.78;3.53;;;29.40;66.40;;;;;;6244470;23;20031;-80
2022/06/05 09:42:21;;;;;;;6.90;3.60;;;29.40;66.10;;;;;;6245433;22;20071;-79
2022/06/05 09:45:08;;;;;;;9.55;3.17;;;29.50;66.40;;;;;;6242366;22;20831;-78
2022/06/05 09:47:56;;;;;;;14.45;3.60;;;29.60;66.80;;;;;;6244107;22;20008;-78
2022/06/05 09:50:27;;;;;;;5.57;3.20;;;29.70;67.30;;;;;;6242032;23;20000;-78
2022/06/05 09:52:53;;;;;;;8.32;4.10;;;29.90;67.10;;;;;;6244534;22;20027;-78
2022/06/05 09:55:21;;;;;;;9.05;3.83;;;29.90;66.90;;;;;;6242703;23;20008;-78
2022/06/05 09:58:31;;;;;;;8.38;3.55;;;29.90;67.20;;;;;;6241869;23;20045;-78
2022/06/05 10:01:19;;;;;;;7.00;4.13;;;30.00;66.90;;;;;;6207044;22;20019;-79
2022/06/05 10:03:47;;;;;;;6.85;3.63;;;30.10;67.10;;;;;;6242620;23;20020;-75
2022/06/05 10:06:21;;;;;;;7.07;4.70;;;30.20;66.90;;;;;;6245162;22;20009;-75
2022/06/05 10:09:09;;;;;;;9.40;4.30;;;30.30;65.80;;;;;;6242571;23;20008;-78
2022/06/05 10:12:07;;;;;;;8.30;4.50;;;30.40;66.10;;;;;;6244596;23;20004;-75
2022/06/05 10:14:51;;;;;;;8.95;4.38;;;30.40;66.30;;;;;;6244162;22;20626;-76
2022/06/05 10:18:02;;;;;;;6.90;3.90;;;30.40;66.30;;;;;;6245059;22;19997;-74
2022/06/05 10:20:50;;;;;;;7.28;3.50;;;30.50;67.30;;;;;;6239051;23;20007;-75
2022/06/05 10:23:22;;;;;;;5.38;3.10;;;30.60;67.00;;;;;;6243482;22;20508;-80
2022/06/05 10:26:10;;;;;;;10.55;3.90;;;30.70;66.60;;;;;;6243752;23;20023;-81
2022/06/05 10:28:41;;;;;;;8.35;3.28;;;30.60;64.10;;;;;;6245051;23;20007;-82
2022/06/05 10:31:22;;;;;;;6.72;2.95;;;30.60;64.50;;;;;;6244093;22;20387;-82
2022/06/05 10:33:56;;;;;;;5.38;2.35;;;30.60;64.20;;;;;;6242874;23;20039;-76
2022/06/05 10:36:48;;;;;;;7.25;3.17;;;30.60;64.00;;;;;;6242008;23;20372;-75
2022/06/05 10:39:34;;;;;;;7.15;2.88;;;30.60;63.30;;;;;;6200278;22;20009;-75
2022/06/05 10:42:11;;;;;;;7.45;3.30;;;30.60;62.80;;;;;;6244539;23;19996;-76
2022/06/05 10:45:04;;;;;;;8.02;2.95;;;30.50;62.40;;;;;;6243623;23;20015;-74
2022/06/05 10:47:49;;;;;;;7.00;3.00;;;30.40;61.50;;;;;;6244493;22;20008;-74
2022/06/05 10:50:22;;;;;;;6.63;3.38;;;30.40;62.70;;;;;;6244176;22;20079;-75
2022/06/05 10:53:12;;;;;;;9.07;3.70;;;30.40;63.20;;;;;;6244384;23;20008;-75
2022/06/05 10:56:04;;;;;;;6.10;2.80;;;30.40;62.50;;;;;;6242411;23;20128;-75
2022/06/05 10:58:39;;;;;;;5.45;3.20;;;30.50;61.60;;;;;;6244973;22;20000;-75
2022/06/05 11:01:22;;;;;;;10.02;3.40;;;30.60;62.10;;;;;;6244646;22;19996;-75
2022/06/05 11:04:00;;;;;;;5.43;3.15;;;30.80;61.30;;;;;;6244769;22;20023;-74
2022/06/05 11:06:44;;;;;;;7.93;3.45;;;30.90;61.70;;;;;;6244884;23;20004;-75
2022/06/05 11:09:18;;;;;;;6.80;3.00;;;31.00;60.00;;;;;;6245283;23;20057;-75
2022/06/05 11:14:49;;;;;;;7.75;2.92;;;31.20;59.50;;;;;;6245105;23;20015;-76
2022/06/05 11:17:46;;;;;;;7.28;2.83;;;31.30;59.80;;;;;;6215625;23;20008;-80
2022/06/05 11:20:14;;;;;;;5.65;2.50;;;31.50;55.50;;;;;;6244491;23;20001;-79
2022/06/05 11:22:58;;;;;;;3.75;2.38;;;31.60;56.00;;;;;;6244875;23;20004;-80
2022/06/05 11:25:26;;;;;;;3.80;2.40;;;31.80;56.30;;;;;;6243557;23;20024;-80
2022/06/05 11:27:59;;;;;;;5.85;2.35;;;32.00;56.50;;;;;;6243572;23;20075;-79
2022/06/05 11:30:51;;;;;;;4.70;2.33;;;32.40;56.20;;;;;;6218226;23;20008;-80
2022/06/05 11:33:23;;;;;;;3.83;2.17;;;32.80;55.70;;;;;;6241852;23;20004;-78
2022/06/05 11:35:58;;;;;;;9.38;2.33;;;33.20;53.60;;;;;;6242858;23;20000;-79
2022/06/05 11:38:56;;;;;;;6.28;2.50;;;33.50;53.20;;;;;;6244624;23;20069;-79
2022/06/05 11:41:44;;;;;;;3.50;1.95;;;33.70;48.20;;;;;;6178386;23;20011;-79
2022/06/05 11:44:24;;;;;;;5.50;2.28;;;33.80;50.00;;;;;;6243693;23;20004;-79
2022/06/05 11:46:55;;;;;;;4.18;1.90;;;33.80;50.10;;;;;;6244895;23;20000;-79
2022/06/05 11:49:56;;;;;;;6.55;2.15;;;33.60;50.60;;;;;;6242928;23;20062;-79
2022/06/05 11:52:51;;;;;;;4.40;2.22;;;33.50;50.70;;;;;;6228131;23;20032;-79
2022/06/05 11:55:30;;;;;;;12.15;2.72;;;33.40;49.60;;;;;;6239311;23;20011;-79
2022/06/05 11:58:00;;;;;;;6.75;2.50;;;33.40;50.70;;;;;;6244541;23;20041;-79
2022/06/05 12:00:35;;;;;;;4.53;2.22;;;33.50;51.20;;;;;;6243510;23;20046;-78
2022/06/05 12:03:11;;;;;;;6.50;2.60;;;33.70;51.70;;;;;;6247169;22;20315;-79
2022/06/05 12:06:09;;;;;;;3.83;2.60;;;33.70;51.10;;;;;;6246731;23;20004;-79
2022/06/05 12:08:39;;;;;;;7.57;3.42;;;33.60;49.20;;;;;;6246727;23;20109;-79
2022/06/05 12:11:13;;;;;;;5.45;2.65;;;33.50;49.20;;;;;;6246104;23;20004;-78
2022/06/05 12:14:08;;;;;;;5.57;2.80;;;33.50;50.60;;;;;;6245714;23;20127;-78
2022/06/05 12:17:00;;;;;;;5.28;2.28;;;33.60;48.80;;;;;;6199789;23;20019;-79
2022/06/05 12:19:44;;;;;;;5.20;2.20;;;33.60;49.80;;;;;;6239452;23;20076;-75
2022/06/05 12:22:24;;;;;;;4.47;2.10;;;33.30;49.00;;;;;;6245754;23;20381;-75
2022/06/05 12:25:08;;;;;;;4.93;1.48;;;33.20;47.70;;;;;;6245668;23;20000;-75
2022/06/05 12:28:05;;;;;;;3.28;1.60;;;33.20;48.10;;;;;;6246407;23;20004;-75
2022/06/05 12:30:40;;;;;;;7.57;2.17;;;33.30;49.00;;;;;;6218826;23;20100;-75
2022/06/05 12:33:16;;;;;;;4.22;2.08;;;33.60;46.80;;;;;;6246647;23;20051;-75
2022/06/05 12:35:46;;;;;;;5.28;1.98;;;33.90;45.60;;;;;;6219247;23;20323;-75
2022/06/05 12:38:36;;;;;;;4.53;2.08;;;34.10;45.70;;;;;;6241376;23;19996;-75
2022/06/05 12:41:08;;;;;;;4.03;1.80;;;34.10;46.20;;;;;;6246117;23;20006;-75
2022/06/05 12:43:56;;;;;;;3.75;1.83;;;34.10;46.50;;;;;;6219615;23;20034;-75
2022/06/05 12:46:35;;;;;;;5.35;2.13;;;34.00;45.90;;;;;;6245875;23;20003;-75
2022/06/05 12:49:13;;;;;;;7.68;2.35;;;34.10;46.00;;;;;;6245683;23;20000;-76
2022/06/05 12:51:44;;;;;;;6.40;1.98;;;34.30;46.70;;;;;;6245071;23;20000;-79
2022/06/05 12:54:51;;;;;;;4.20;1.67;;;34.40;45.40;;;;;;6244894;23;20000;-79
2022/06/05 12:57:29;;;;;;;2.50;1.42;;;34.60;43.90;;;;;;6185657;23;20004;-79
2022/06/05 13:00:06;;;;;;;5.93;2.10;;;34.50;45.40;;;;;;6218770;23;20422;-80
2022/06/05 13:02:42;;;;;;;4.70;1.98;;;34.40;45.80;;;;;;6221726;23;20360;-78
2022/06/05 13:05:32;;;;;;;4.43;2.40;;;34.40;46.80;;;;;;6245178;22;20008;-79
2022/06/05 13:08:07;;;;;;;;;;;34.30;47.20;;;;;;6244710;22;20415;-80
2022/06/05 13:11:12;;;;;;;3.40;1.90;;;34.40;46.00;;;;;;6245643;22;19922;-79
2022/06/05 13:13:45;;;;;;;4.07;2.17;;;34.50;43.70;;;;;;6231222;23;20008;-76
2022/06/05 13:16:36;;;;;;;5.57;2.15;;;34.50;44.80;;;;;;6245486;22;20008;-77
2022/06/05 13:19:26;;;;;;;2.88;1.65;;;34.70;43.80;;;;;;6230082;23;20077;-80
2022/06/05 13:22:03;;;;;;;4.10;2.13;;;34.80;43.60;;;;;;6246672;22;20000;-80
2022/06/05 13:24:49;;;;;;;4.28;2.25;;;35.00;44.20;;;;;;6245951;22;20083;-79
2022/06/05 13:27:38;;;;;;;3.72;2.17;;;35.20;44.90;;;;;;6244357;22;20000;-79
2022/06/05 13:30:20;;;;;;;4.97;1.90;;;35.20;44.50;;;;;;6197857;22;20038;-80
2022/06/05 13:33:14;;;;;;;5.43;1.80;;;35.20;44.50;;;;;;6244336;22;20004;-78
2022/06/05 13:35:45;;;;;;;4.28;1.95;;;35.20;44.20;;;;;;6241904;23;20012;-77
2022/06/05 13:38:28;;;;;;;5.88;2.28;;;35.40;42.80;;;;;;6243040;22;20008;-79
2022/06/05 13:41:05;;;;;;;7.45;2.40;;;35.50;42.80;;;;;;6242856;23;20468;-79